<?xml version='1.0' encoding='UTF-8'?>
<gpx xmlns="http://www.topografix.com/GPX/1/1" creator="www.balnam.be" version="1.1" xmlns:xsi="http://www.w3.org/2001/XMLSchema-instance" xsi:schemaLocation="http://www.topografix.com/GPX/1/1 http://www.topografix.com/GPX/1/1/gpx.xsd">
<trk>
<name>nbrfl2</name>
<cmt>v</cmt>
<desc>Felenne Chemin n°2 </desc>
<link href="https://chemins.be/felenne/chemin/2"/><trkseg>
<trkpt lat="50.064558" lon="4.860368"><time>2026-05-02T23:14:58Z</time></trkpt>
<trkpt lat="50.063795" lon="4.862120"><time>2026-05-02T23:24:58Z</time></trkpt>
<trkpt lat="50.063308" lon="4.862408"><time>2026-05-02T23:34:58Z</time></trkpt>
<trkpt lat="50.061960" lon="4.862394"><time>2026-05-02T23:44:58Z</time></trkpt>
<trkpt lat="50.061092" lon="4.863307"><time>2026-05-02T23:54:58Z</time></trkpt>
<trkpt lat="50.059645" lon="4.865401"><time>2026-05-03T00:04:58Z</time></trkpt>
<trkpt lat="50.058156" lon="4.866572"><time>2026-05-03T00:14:58Z</time></trkpt>
<trkpt lat="50.057574" lon="4.868144"><time>2026-05-03T00:24:58Z</time></trkpt>
<trkpt lat="50.056496" lon="4.870004"><time>2026-05-03T00:34:58Z</time></trkpt>
<trkpt lat="50.056126" lon="4.870433"><time>2026-05-03T00:44:58Z</time></trkpt>
<trkpt lat="50.055415" lon="4.870524"><time>2026-05-03T00:54:58Z</time></trkpt>
<trkpt lat="50.053306" lon="4.869511"><time>2026-05-03T01:04:58Z</time></trkpt>
<trkpt lat="50.050747" lon="4.866858"><time>2026-05-03T01:14:58Z</time></trkpt>
<trkpt lat="50.049847" lon="4.866979"><time>2026-05-03T01:24:58Z</time></trkpt>
<trkpt lat="50.047778" lon="4.867744"><time>2026-05-03T01:34:58Z</time></trkpt>
<trkpt lat="50.047272" lon="4.868381"><time>2026-05-03T01:44:58Z</time></trkpt>
<trkpt lat="50.047168" lon="4.868999"><time>2026-05-03T01:54:58Z</time></trkpt>
<trkpt lat="50.047804" lon="4.871658"><time>2026-05-03T02:04:58Z</time></trkpt>
<trkpt lat="50.047584" lon="4.872494"><time>2026-05-03T02:14:58Z</time></trkpt>
<trkpt lat="50.045964" lon="4.872993"><time>2026-05-03T02:24:58Z</time></trkpt>
<trkpt lat="50.044010" lon="4.871646"><time>2026-05-03T02:34:58Z</time></trkpt>
<trkpt lat="50.043443" lon="4.871654"><time>2026-05-03T02:44:58Z</time></trkpt>
<trkpt lat="50.042825" lon="4.871285"><time>2026-05-03T02:54:58Z</time></trkpt>
<trkpt lat="50.041943" lon="4.871345"><time>2026-05-03T03:04:58Z</time></trkpt>
<trkpt lat="50.040659" lon="4.872017"><time>2026-05-03T03:14:58Z</time></trkpt>
<trkpt lat="50.040514" lon="4.872031"><time>2026-05-03T03:24:58Z</time></trkpt>
<trkpt lat="50.040068" lon="4.872664"><time>2026-05-03T03:34:58Z</time></trkpt>
</trkseg></trk>
<trk>
<name>nbrfl2</name>
<cmt>d</cmt>
<desc>Felenne Chemin n°2 </desc>
<link href="https://chemins.be/felenne/chemin/2"/><trkseg>
<trkpt lat="50.040068" lon="4.872664"><time>2026-05-03T03:34:58Z</time></trkpt>
<trkpt lat="50.039793" lon="4.873330"><time>2026-05-03T03:44:58Z</time></trkpt>
</trkseg>
</trk>
</gpx>